Peoria, IL

6:02 AM CDT on May 24, 2017 (GMT -0500)
The Uplands | | Change Station
Active Advisory: Flood Warning

Elev 601 ft 40.70 °N, 89.62 °W | Updated 36 seconds ago

Overcast
Overcast
52.2 °F
Feels Like 52.2 °F
N
0.0
Wind Variable Wind from ENE
Gusts 0.0 mph

Today
High -- | Low -- °F
--% Chance of Precip.
Yesterday
High -- | Low -- °F
Precip. -- in
Pressure 29.60 in
Visibility 3.0 miles
Clouds Few 300 ft
Mostly Cloudy 9000 ft
Overcast 11000 ft
Dew Point 52 °F
Humidity 98%
Rainfall 0.00 in
Snow Depth Not available.
5:33 AM 8:17 PM
Waning Crescent, 3% visible
METAR KPIA 241054Z 36003KT 3SM BR FEW003 BKN090 OVC110 11/11 A2960 RMK AO2 SLP022 T01060106
Pressure 29.60 in
Visibility 3.0 miles
Clouds Few 300 ft
Mostly Cloudy 9000 ft
Overcast 11000 ft
Dew Point 52 °F
Humidity 98%
Rainfall 0.00 in
Snow Depth Not available.
5:33 AM 8:17 PM
Waning Crescent, 3% visible
METAR KPIA 241054Z 36003KT 3SM BR FEW003 BKN090 OVC110 11/11 A2960 RMK AO2 SLP022 T01060106

Get Your Daily Forecast Email!

Thanks for signing up!

Be on the lookout for a verification email in your inbox.

You'll start receiving severe weather alerts in your inbox..

×

10-Day Weather Forecast

Almanac

Astronomy

May. 24, 2017 Rise Set
Actual Time
Civil Twilight
Nautical Twilight
Astronomical Twilight
Moon
Length of Visible Light
Length of Day
Tomorrow will be .
, % of the Moon is Illuminated

Today's Extremes

State Highs State Lows

Community

WunderPhotos

Category 6

Welcome to Category 6. This is the collective home for Weather Underground's featured writeups by Dr. Jeff Masters (right), Bob Henson (left), Chris Burt, and other regular contributors.

Nearby

Air Quality

  Air Quality AQ Index Pollutant
Not available.

Snow Depth

Station Depth Elevation

Earthquake Activity

City Distance Mag. Time & Date
Minimum magnitude displayed is 2.5.

Coastal Water Temperatures

Place Temperature

Stations

Nearby Weather Stations

Station Location Temp. Windchill Dew Point Humidity Wind Precip. Elev Updated Type
                   

Watches & Warnings

Flood Warning
Issued: 8:30 PM CDT May. 23, 2017 – National Weather Service

The Flood Warning continues for
the Illinois River at Peoria.
* Until late Thursday night.
* At 745 PM Tuesday the stage was 18.5 feet.
* Flood stage is 18.0 feet.
* Minor flooding is occurring and minor flooding is forecast.
* Impact... at 18.0 feet... some flooding begins to bottomland not
protected by levees.



                  Fld observed forecast 6am
location stg stg day time Wed Thu Fri

Illinois River
Peoria 18 18.5 Tue 8 PM 18.4 18.1 17.9



Lat... Lon 4093 8952 4093 8941 4062 8957 4047 8980
      4053 8988 4068 8965